sensor_id;sensor_type;location;lat;lon;timestamp;temperature;humidity
4727;DHT22;2377;51.734;8.950;2023-04-25T00:02:24;6.10;99.90
4727;DHT22;2377;51.734;8.950;2023-04-25T00:04:51;6.10;99.90
4727;DHT22;2377;51.734;8.950;2023-04-25T00:07:18;6.20;99.90
4727;DHT22;2377;51.734;8.950;2023-04-25T00:09:45;6.20;99.90
4727;DHT22;2377;51.734;8.950;2023-04-25T00:12:12;6.20;99.90
4727;DHT22;2377;51.734;8.950;2023-04-25T00:14:40;6.20;99.90
4727;DHT22;2377;51.734;8.950;2023-04-25T00:17:07;6.30;99.90
4727;DHT22;2377;51.734;8.950;2023-04-25T00:19:34;6.30;99.90
4727;DHT22;2377;51.734;8.950;2023-04-25T00:22:03;6.30;99.90
4727;DHT22;2377;51.734;8.950;2023-04-25T00:24:31;6.30;99.90
4727;DHT22;2377;51.734;8.950;2023-04-25T00:26:57;6.30;99.90
4727;DHT22;2377;51.734;8.950;2023-04-25T00:29:24;6.20;99.90
4727;DHT22;2377;51.734;8.950;2023-04-25T00:31:52;6.30;99.90
4727;DHT22;2377;51.734;8.950;2023-04-25T00:34:19;6.20;99.90
4727;DHT22;2377;51.734;8.950;2023-04-25T00:36:46;6.20;99.90
4727;DHT22;2377;51.734;8.950;2023-04-25T00:39:13;6.30;99.90
4727;DHT22;2377;51.734;8.950;2023-04-25T00:41:40;6.20;99.90
4727;DHT22;2377;51.734;8.950;2023-04-25T00:44:08;6.20;99.90
4727;DHT22;2377;51.734;8.950;2023-04-25T00:46:37;6.20;99.90
4727;DHT22;2377;51.734;8.950;2023-04-25T00:49:06;6.20;99.90
4727;DHT22;2377;51.734;8.950;2023-04-25T00:51:33;6.20;99.90
4727;DHT22;2377;51.734;8.950;2023-04-25T00:54:01;6.10;99.90
4727;DHT22;2377;51.734;8.950;2023-04-25T00:56:28;6.10;99.90
4727;DHT22;2377;51.734;8.950;2023-04-25T00:58:56;6.10;99.90
4727;DHT22;2377;51.734;8.950;2023-04-25T01:01:23;6.10;99.90
4727;DHT22;2377;51.734;8.950;2023-04-25T01:03:53;6.20;99.90
4727;DHT22;2377;51.734;8.950;2023-04-25T01:06:22;6.30;99.90
4727;DHT22;2377;51.734;8.950;2023-04-25T01:08:49;6.20;99.90
4727;DHT22;2377;51.734;8.950;2023-04-25T01:11:16;6.20;99.90
4727;DHT22;2377;51.734;8.950;2023-04-25T01:13:44;6.20;99.90
4727;DHT22;2377;51.734;8.950;2023-04-25T01:16:11;6.20;99.90
4727;DHT22;2377;51.734;8.950;2023-04-25T01:18:38;6.10;99.90
4727;DHT22;2377;51.734;8.950;2023-04-25T01:21:09;6.10;99.90
4727;DHT22;2377;51.734;8.950;2023-04-25T01:23:38;6.10;99.90
4727;DHT22;2377;51.734;8.950;2023-04-25T01:26:06;6.10;99.90
4727;DHT22;2377;51.734;8.950;2023-04-25T01:28:35;6.10;99.90
4727;DHT22;2377;51.734;8.950;2023-04-25T01:31:02;6.10;99.90
4727;DHT22;2377;51.734;8.950;2023-04-25T01:33:30;6.10;99.90
4727;DHT22;2377;51.734;8.950;2023-04-25T01:35:56;6.10;99.90
4727;DHT22;2377;51.734;8.950;2023-04-25T01:38:25;6.10;99.90
4727;DHT22;2377;51.734;8.950;2023-04-25T01:40:52;6.10;99.90
4727;DHT22;2377;51.734;8.950;2023-04-25T01:43:21;6.10;99.90
4727;DHT22;2377;51.734;8.950;2023-04-25T01:45:49;6.10;99.90
4727;DHT22;2377;51.734;8.950;2023-04-25T01:48:16;6.00;99.90
4727;DHT22;2377;51.734;8.950;2023-04-25T01:50:44;6.00;99.90
4727;DHT22;2377;51.734;8.950;2023-04-25T01:53:14;6.00;99.90
4727;DHT22;2377;51.734;8.950;2023-04-25T01:55:42;6.00;99.90
4727;DHT22;2377;51.734;8.950;2023-04-25T01:58:09;6.00;99.90
4727;DHT22;2377;51.734;8.950;2023-04-25T02:00:38;6.00;99.90
4727;DHT22;2377;51.734;8.950;2023-04-25T02:03:06;6.00;99.90
4727;DHT22;2377;51.734;8.950;2023-04-25T02:05:35;6.00;99.90
4727;DHT22;2377;51.734;8.950;2023-04-25T02:08:04;6.00;99.90
4727;DHT22;2377;51.734;8.950;2023-04-25T02:10:32;6.00;99.90
4727;DHT22;2377;51.734;8.950;2023-04-25T02:13:01;6.00;99.90
4727;DHT22;2377;51.734;8.950;2023-04-25T02:15:28;5.90;99.90
4727;DHT22;2377;51.734;8.950;2023-04-25T02:17:55;5.90;99.90
4727;DHT22;2377;51.734;8.950;2023-04-25T02:20:23;6.00;99.90
4727;DHT22;2377;51.734;8.950;2023-04-25T02:22:51;6.00;99.90
4727;DHT22;2377;51.734;8.950;2023-04-25T02:25:18;6.00;99.90
4727;DHT22;2377;51.734;8.950;2023-04-25T02:27:46;6.00;99.90
4727;DHT22;2377;51.734;8.950;2023-04-25T02:30:15;6.00;99.90
4727;DHT22;2377;51.734;8.950;2023-04-25T02:32:42;5.90;99.90
4727;DHT22;2377;51.734;8.950;2023-04-25T02:35:09;5.90;99.90
4727;DHT22;2377;51.734;8.950;2023-04-25T02:37:37;5.80;99.90
4727;DHT22;2377;51.734;8.950;2023-04-25T02:40:06;5.80;99.90
4727;DHT22;2377;51.734;8.950;2023-04-25T02:42:34;5.80;99.90
4727;DHT22;2377;51.734;8.950;2023-04-25T02:45:01;5.80;99.90
4727;DHT22;2377;51.734;8.950;2023-04-25T02:47:30;5.80;99.90
4727;DHT22;2377;51.734;8.950;2023-04-25T02:49:57;5.80;99.90
4727;DHT22;2377;51.734;8.950;2023-04-25T02:52:24;5.80;99.90
4727;DHT22;2377;51.734;8.950;2023-04-25T02:54:51;5.80;99.90
4727;DHT22;2377;51.734;8.950;2023-04-25T02:57:18;5.80;99.90
4727;DHT22;2377;51.734;8.950;2023-04-25T02:59:45;5.80;99.90
4727;DHT22;2377;51.734;8.950;2023-04-25T03:02:12;5.80;99.90
4727;DHT22;2377;51.734;8.950;2023-04-25T03:04:40;5.80;99.90
4727;DHT22;2377;51.734;8.950;2023-04-25T03:07:07;5.90;99.90
4727;DHT22;2377;51.734;8.950;2023-04-25T03:09:34;5.90;99.90
4727;DHT22;2377;51.734;8.950;2023-04-25T03:12:01;5.90;99.90
4727;DHT22;2377;51.734;8.950;2023-04-25T03:14:28;6.00;99.90
4727;DHT22;2377;51.734;8.950;2023-04-25T03:16:55;5.90;99.90
4727;DHT22;2377;51.734;8.950;2023-04-25T03:19:22;5.80;99.90
4727;DHT22;2377;51.734;8.950;2023-04-25T03:21:50;5.80;99.90
4727;DHT22;2377;51.734;8.950;2023-04-25T03:24:17;5.90;99.90
4727;DHT22;2377;51.734;8.950;2023-04-25T03:26:44;5.80;99.90
4727;DHT22;2377;51.734;8.950;2023-04-25T03:29:11;5.90;99.90
4727;DHT22;2377;51.734;8.950;2023-04-25T03:31:38;5.90;99.90
4727;DHT22;2377;51.734;8.950;2023-04-25T03:34:05;5.90;99.90
4727;DHT22;2377;51.734;8.950;2023-04-25T03:36:32;6.00;99.90
4727;DHT22;2377;51.734;8.950;2023-04-25T03:39:00;6.00;99.90
4727;DHT22;2377;51.734;8.950;2023-04-25T03:41:27;6.00;99.90
4727;DHT22;2377;51.734;8.950;2023-04-25T03:43:55;6.00;99.90
4727;DHT22;2377;51.734;8.950;2023-04-25T03:46:22;6.00;99.90
4727;DHT22;2377;51.734;8.950;2023-04-25T03:48:49;6.00;99.90
4727;DHT22;2377;51.734;8.950;2023-04-25T03:51:15;6.10;99.90
4727;DHT22;2377;51.734;8.950;2023-04-25T03:53:42;6.00;99.90
4727;DHT22;2377;51.734;8.950;2023-04-25T03:56:11;6.10;99.90
4727;DHT22;2377;51.734;8.950;2023-04-25T03:58:37;6.10;99.90
4727;DHT22;2377;51.734;8.950;2023-04-25T04:01:04;6.10;99.90
4727;DHT22;2377;51.734;8.950;2023-04-25T04:03:33;6.10;99.90
4727;DHT22;2377;51.734;8.950;2023-04-25T04:06:01;6.10;99.90
4727;DHT22;2377;51.734;8.950;2023-04-25T04:08:29;6.10;99.90
4727;DHT22;2377;51.734;8.950;2023-04-25T04:10:57;6.10;99.90
4727;DHT22;2377;51.734;8.950;2023-04-25T04:13:25;6.10;99.90
4727;DHT22;2377;51.734;8.950;2023-04-25T04:15:53;6.10;99.90
4727;DHT22;2377;51.734;8.950;2023-04-25T04:18:20;6.10;99.90
4727;DHT22;2377;51.734;8.950;2023-04-25T04:20:46;6.00;99.90
4727;DHT22;2377;51.734;8.950;2023-04-25T04:23:13;6.00;99.90
4727;DHT22;2377;51.734;8.950;2023-04-25T04:25:40;5.80;99.90
4727;DHT22;2377;51.734;8.950;2023-04-25T04:28:07;5.80;99.90
4727;DHT22;2377;51.734;8.950;2023-04-25T04:30:35;5.80;99.90
4727;DHT22;2377;51.734;8.950;2023-04-25T04:33:03;5.60;99.90
4727;DHT22;2377;51.734;8.950;2023-04-25T04:35:30;5.70;99.90
4727;DHT22;2377;51.734;8.950;2023-04-25T04:37:56;5.70;99.90
4727;DHT22;2377;51.734;8.950;2023-04-25T04:40:23;5.70;99.90
4727;DHT22;2377;51.734;8.950;2023-04-25T04:42:51;5.80;99.90
4727;DHT22;2377;51.734;8.950;2023-04-25T04:45:18;5.80;99.90
4727;DHT22;2377;51.734;8.950;2023-04-25T04:47:47;5.70;99.90
4727;DHT22;2377;51.734;8.950;2023-04-25T04:50:15;5.60;99.90
4727;DHT22;2377;51.734;8.950;2023-04-25T04:52:42;5.70;99.90
4727;DHT22;2377;51.734;8.950;2023-04-25T04:55:09;5.60;99.90
4727;DHT22;2377;51.734;8.950;2023-04-25T04:57:36;5.70;99.90
4727;DHT22;2377;51.734;8.950;2023-04-25T05:00:05;5.80;99.90
4727;DHT22;2377;51.734;8.950;2023-04-25T05:02:36;5.80;99.90
4727;DHT22;2377;51.734;8.950;2023-04-25T05:05:05;5.80;99.90
4727;DHT22;2377;51.734;8.950;2023-04-25T05:07:33;5.80;99.90
4727;DHT22;2377;51.734;8.950;2023-04-25T05:10:00;5.80;99.90
4727;DHT22;2377;51.734;8.950;2023-04-25T05:12:27;5.80;99.90
4727;DHT22;2377;51.734;8.950;2023-04-25T05:14:54;5.70;99.90
4727;DHT22;2377;51.734;8.950;2023-04-25T05:17:21;5.80;99.90
4727;DHT22;2377;51.734;8.950;2023-04-25T05:19:47;5.80;99.90
4727;DHT22;2377;51.734;8.950;2023-04-25T05:22:16;5.70;99.90
4727;DHT22;2377;51.734;8.950;2023-04-25T05:24:42;5.70;99.90
4727;DHT22;2377;51.734;8.950;2023-04-25T05:27:09;5.70;99.90
4727;DHT22;2377;51.734;8.950;2023-04-25T05:29:36;5.70;99.90
4727;DHT22;2377;51.734;8.950;2023-04-25T05:32:04;5.70;99.90
4727;DHT22;2377;51.734;8.950;2023-04-25T05:34:32;5.80;99.90
4727;DHT22;2377;51.734;8.950;2023-04-25T05:36:59;5.70;99.90
4727;DHT22;2377;51.734;8.950;2023-04-25T05:39:28;5.70;99.90
4727;DHT22;2377;51.734;8.950;2023-04-25T05:41:55;5.70;99.90
4727;DHT22;2377;51.734;8.950;2023-04-25T05:44:22;5.70;99.90
4727;DHT22;2377;51.734;8.950;2023-04-25T05:46:49;5.70;99.90
4727;DHT22;2377;51.734;8.950;2023-04-25T05:49:16;5.80;99.90
4727;DHT22;2377;51.734;8.950;2023-04-25T05:51:43;5.80;99.90
4727;DHT22;2377;51.734;8.950;2023-04-25T05:54:10;5.80;99.90
4727;DHT22;2377;51.734;8.950;2023-04-25T05:56:38;5.80;99.90
4727;DHT22;2377;51.734;8.950;2023-04-25T05:59:05;5.80;99.90
4727;DHT22;2377;51.734;8.950;2023-04-25T06:01:32;5.80;99.90
4727;DHT22;2377;51.734;8.950;2023-04-25T06:03:59;5.80;99.90
4727;DHT22;2377;51.734;8.950;2023-04-25T06:06:26;5.90;99.90
4727;DHT22;2377;51.734;8.950;2023-04-25T06:08:53;5.90;99.90
4727;DHT22;2377;51.734;8.950;2023-04-25T06:11:20;5.90;99.90
4727;DHT22;2377;51.734;8.950;2023-04-25T06:13:49;5.90;99.90
4727;DHT22;2377;51.734;8.950;2023-04-25T06:16:15;5.90;99.90
4727;DHT22;2377;51.734;8.950;2023-04-25T06:18:42;6.00;99.90
4727;DHT22;2377;51.734;8.950;2023-04-25T06:21:09;5.90;99.90
4727;DHT22;2377;51.734;8.950;2023-04-25T06:23:36;5.90;99.90
4727;DHT22;2377;51.734;8.950;2023-04-25T06:26:03;5.90;99.90
4727;DHT22;2377;51.734;8.950;2023-04-25T06:28:30;6.00;99.90
4727;DHT22;2377;51.734;8.950;2023-04-25T06:30:58;6.00;99.90
4727;DHT22;2377;51.734;8.950;2023-04-25T06:33:25;6.00;99.90
4727;DHT22;2377;51.734;8.950;2023-04-25T06:35:52;6.00;99.90
4727;DHT22;2377;51.734;8.950;2023-04-25T06:38:19;6.00;99.90
4727;DHT22;2377;51.734;8.950;2023-04-25T06:40:46;6.00;99.90
4727;DHT22;2377;51.734;8.950;2023-04-25T06:43:13;6.00;99.90
4727;DHT22;2377;51.734;8.950;2023-04-25T06:45:40;6.10;99.90
4727;DHT22;2377;51.734;8.950;2023-04-25T06:48:09;6.10;99.90
4727;DHT22;2377;51.734;8.950;2023-04-25T06:50:35;6.10;99.90
4727;DHT22;2377;51.734;8.950;2023-04-25T06:53:02;6.10;99.90
4727;DHT22;2377;51.734;8.950;2023-04-25T06:55:29;6.00;99.90
4727;DHT22;2377;51.734;8.950;2023-04-25T06:57:56;6.10;99.90
4727;DHT22;2377;51.734;8.950;2023-04-25T07:00:23;6.10;99.90
4727;DHT22;2377;51.734;8.950;2023-04-25T07:02:50;6.20;99.90
4727;DHT22;2377;51.734;8.950;2023-04-25T07:05:18;6.20;99.90
4727;DHT22;2377;51.734;8.950;2023-04-25T07:07:46;6.20;99.90
4727;DHT22;2377;51.734;8.950;2023-04-25T07:10:13;6.20;99.90
4727;DHT22;2377;51.734;8.950;2023-04-25T07:12:40;6.30;99.90
4727;DHT22;2377;51.734;8.950;2023-04-25T07:15:08;6.20;99.90
4727;DHT22;2377;51.734;8.950;2023-04-25T07:17:36;6.30;99.90
4727;DHT22;2377;51.734;8.950;2023-04-25T07:20:04;6.20;99.90
4727;DHT22;2377;51.734;8.950;2023-04-25T07:22:34;6.30;99.90
4727;DHT22;2377;51.734;8.950;2023-04-25T07:25:01;6.30;99.90
4727;DHT22;2377;51.734;8.950;2023-04-25T07:27:29;6.50;99.90
4727;DHT22;2377;51.734;8.950;2023-04-25T07:29:56;6.50;99.90
4727;DHT22;2377;51.734;8.950;2023-04-25T07:32:24;6.50;99.90
4727;DHT22;2377;51.734;8.950;2023-04-25T07:34:51;6.60;99.90
4727;DHT22;2377;51.734;8.950;2023-04-25T07:37:18;6.60;99.90
4727;DHT22;2377;51.734;8.950;2023-04-25T07:39:47;6.60;99.90
4727;DHT22;2377;51.734;8.950;2023-04-25T07:42:14;6.50;99.90
4727;DHT22;2377;51.734;8.950;2023-04-25T07:44:43;6.60;99.90
4727;DHT22;2377;51.734;8.950;2023-04-25T07:47:10;6.60;99.90
4727;DHT22;2377;51.734;8.950;2023-04-25T07:49:37;6.70;99.90
4727;DHT22;2377;51.734;8.950;2023-04-25T07:52:06;6.60;99.90
4727;DHT22;2377;51.734;8.950;2023-04-25T07:54:32;6.60;99.90
4727;DHT22;2377;51.734;8.950;2023-04-25T07:57:01;6.80;99.90
4727;DHT22;2377;51.734;8.950;2023-04-25T07:59:28;6.90;99.90
4727;DHT22;2377;51.734;8.950;2023-04-25T08:01:55;7.00;99.90
4727;DHT22;2377;51.734;8.950;2023-04-25T08:04:23;6.90;99.90
4727;DHT22;2377;51.734;8.950;2023-04-25T08:06:50;6.90;99.90
4727;DHT22;2377;51.734;8.950;2023-04-25T08:09:17;6.90;99.90
4727;DHT22;2377;51.734;8.950;2023-04-25T08:11:44;6.80;99.90
4727;DHT22;2377;51.734;8.950;2023-04-25T08:14:13;6.60;99.90
4727;DHT22;2377;51.734;8.950;2023-04-25T08:16:40;6.60;99.90
4727;DHT22;2377;51.734;8.950;2023-04-25T08:19:07;6.60;99.90
4727;DHT22;2377;51.734;8.950;2023-04-25T08:21:34;6.70;99.90
4727;DHT22;2377;51.734;8.950;2023-04-25T08:24:01;6.80;99.90
4727;DHT22;2377;51.734;8.950;2023-04-25T08:26:28;7.10;99.90
4727;DHT22;2377;51.734;8.950;2023-04-25T08:28:55;7.30;99.90
4727;DHT22;2377;51.734;8.950;2023-04-25T08:31:24;7.50;99.90
4727;DHT22;2377;51.734;8.950;2023-04-25T08:33:52;7.60;84.60
4727;DHT22;2377;51.734;8.950;2023-04-25T08:36:18;7.70;71.00
4727;DHT22;2377;51.734;8.950;2023-04-25T08:38:45;7.90;55.80
4727;DHT22;2377;51.734;8.950;2023-04-25T08:41:13;8.00;38.80
4727;DHT22;2377;51.734;8.950;2023-04-25T08:43:42;7.90;12.60
4727;DHT22;2377;51.734;8.950;2023-04-25T08:46:11;7.80;7.70
4727;DHT22;2377;51.734;8.950;2023-04-25T08:48:40;7.70;27.90
4727;DHT22;2377;51.734;8.950;2023-04-25T08:51:17;7.70;11.20
4727;DHT22;2377;51.734;8.950;2023-04-25T08:53:51;7.90;2.80
4727;DHT22;2377;51.734;8.950;2023-04-25T08:56:18;7.90;12.80
4727;DHT22;2377;51.734;8.950;2023-04-25T08:58:48;8.00;12.40
4727;DHT22;2377;51.734;8.950;2023-04-25T09:01:15;8.00;1.30
4727;DHT22;2377;51.734;8.950;2023-04-25T09:03:45;8.00;4.90
4727;DHT22;2377;51.734;8.950;2023-04-25T09:06:13;8.00;2.90
4727;DHT22;2377;51.734;8.950;2023-04-25T09:08:41;8.00;15.00
4727;DHT22;2377;51.734;8.950;2023-04-25T09:11:08;8.10;6.00
4727;DHT22;2377;51.734;8.950;2023-04-25T09:13:35;8.10;18.70
4727;DHT22;2377;51.734;8.950;2023-04-25T09:16:02;8.20;5.20
4727;DHT22;2377;51.734;8.950;2023-04-25T09:18:31;8.30;3.50
4727;DHT22;2377;51.734;8.950;2023-04-25T09:21:05;8.30;1.00
4727;DHT22;2377;51.734;8.950;2023-04-25T09:23:39;8.10;1.00
4727;DHT22;2377;51.734;8.950;2023-04-25T09:26:08;8.10;1.00
4727;DHT22;2377;51.734;8.950;2023-04-25T09:28:35;7.90;1.00
4727;DHT22;2377;51.734;8.950;2023-04-25T09:31:03;7.90;1.00
4727;DHT22;2377;51.734;8.950;2023-04-25T09:33:31;8.00;1.00
4727;DHT22;2377;51.734;8.950;2023-04-25T09:36:06;8.00;1.00
4727;DHT22;2377;51.734;8.950;2023-04-25T09:38:40;8.10;1.00
4727;DHT22;2377;51.734;8.950;2023-04-25T09:41:09;8.40;1.00
4727;DHT22;2377;51.734;8.950;2023-04-25T09:43:37;8.50;1.00
4727;DHT22;2377;51.734;8.950;2023-04-25T09:46:08;8.60;1.00
4727;DHT22;2377;51.734;8.950;2023-04-25T09:48:36;8.50;1.00
4727;DHT22;2377;51.734;8.950;2023-04-25T09:51:06;8.50;1.00
4727;DHT22;2377;51.734;8.950;2023-04-25T09:53:34;8.40;1.00
4727;DHT22;2377;51.734;8.950;2023-04-25T09:56:04;8.40;1.00
4727;DHT22;2377;51.734;8.950;2023-04-25T09:58:33;8.30;1.00
4727;DHT22;2377;51.734;8.950;2023-04-25T10:01:03;8.20;1.00
4727;DHT22;2377;51.734;8.950;2023-04-25T10:03:32;8.00;1.00
4727;DHT22;2377;51.734;8.950;2023-04-25T10:06:01;7.90;1.00
4727;DHT22;2377;51.734;8.950;2023-04-25T10:08:32;8.00;1.00
4727;DHT22;2377;51.734;8.950;2023-04-25T10:11:01;8.10;1.00
4727;DHT22;2377;51.734;8.950;2023-04-25T10:13:30;8.30;1.00
4727;DHT22;2377;51.734;8.950;2023-04-25T10:16:00;8.80;1.00
4727;DHT22;2377;51.734;8.950;2023-04-25T10:18:29;9.00;1.00
4727;DHT22;2377;51.734;8.950;2023-04-25T10:20:59;8.90;1.00
4727;DHT22;2377;51.734;8.950;2023-04-25T10:23:27;8.80;1.00
4727;DHT22;2377;51.734;8.950;2023-04-25T10:25:58;8.70;1.00
4727;DHT22;2377;51.734;8.950;2023-04-25T10:28:26;8.60;1.00
4727;DHT22;2377;51.734;8.950;2023-04-25T10:30:57;8.60;1.00
4727;DHT22;2377;51.734;8.950;2023-04-25T10:33:37;8.60;1.00
4727;DHT22;2377;51.734;8.950;2023-04-25T10:36:15;8.50;1.00
4727;DHT22;2377;51.734;8.950;2023-04-25T10:38:45;8.50;1.00
4727;DHT22;2377;51.734;8.950;2023-04-25T10:41:18;8.40;1.00
4727;DHT22;2377;51.734;8.950;2023-04-25T10:43:47;8.50;1.00
4727;DHT22;2377;51.734;8.950;2023-04-25T10:46:17;8.50;1.00
4727;DHT22;2377;51.734;8.950;2023-04-25T10:48:48;8.60;1.00
4727;DHT22;2377;51.734;8.950;2023-04-25T10:51:21;8.80;1.00
4727;DHT22;2377;51.734;8.950;2023-04-25T10:53:59;8.90;1.00
4727;DHT22;2377;51.734;8.950;2023-04-25T10:56:29;9.00;1.00
4727;DHT22;2377;51.734;8.950;2023-04-25T10:59:06;9.10;1.00
4727;DHT22;2377;51.734;8.950;2023-04-25T11:01:37;9.20;1.00
4727;DHT22;2377;51.734;8.950;2023-04-25T11:04:05;9.30;1.00
4727;DHT22;2377;51.734;8.950;2023-04-25T11:06:42;9.20;1.00
4727;DHT22;2377;51.734;8.950;2023-04-25T11:09:16;9.10;1.00
4727;DHT22;2377;51.734;8.950;2023-04-25T11:11:53;9.00;1.00
4727;DHT22;2377;51.734;8.950;2023-04-25T11:14:20;8.90;1.00
4727;DHT22;2377;51.734;8.950;2023-04-25T11:16:52;9.00;1.00
4727;DHT22;2377;51.734;8.950;2023-04-25T11:19:19;9.00;1.00
4727;DHT22;2377;51.734;8.950;2023-04-25T11:21:46;8.80;1.00
4727;DHT22;2377;51.734;8.950;2023-04-25T11:24:13;8.80;1.00
4727;DHT22;2377;51.734;8.950;2023-04-25T11:26:41;8.80;1.00
4727;DHT22;2377;51.734;8.950;2023-04-25T11:29:09;8.90;1.00
4727;DHT22;2377;51.734;8.950;2023-04-25T11:31:36;8.80;1.00
4727;DHT22;2377;51.734;8.950;2023-04-25T11:34:03;8.80;1.00
4727;DHT22;2377;51.734;8.950;2023-04-25T11:36:31;8.80;1.00
4727;DHT22;2377;51.734;8.950;2023-04-25T11:38:57;8.80;1.00
4727;DHT22;2377;51.734;8.950;2023-04-25T11:41:25;8.90;1.00
4727;DHT22;2377;51.734;8.950;2023-04-25T11:43:52;9.00;1.00
4727;DHT22;2377;51.734;8.950;2023-04-25T11:46:21;8.80;1.00
4727;DHT22;2377;51.734;8.950;2023-04-25T11:48:48;8.80;1.00
4727;DHT22;2377;51.734;8.950;2023-04-25T11:51:15;8.70;1.00
4727;DHT22;2377;51.734;8.950;2023-04-25T11:53:44;8.80;1.00
4727;DHT22;2377;51.734;8.950;2023-04-25T11:56:12;8.90;1.00
4727;DHT22;2377;51.734;8.950;2023-04-25T11:58:55;9.00;1.00
4727;DHT22;2377;51.734;8.950;2023-04-25T12:01:31;9.00;1.00
4727;DHT22;2377;51.734;8.950;2023-04-25T12:04:10;9.10;1.00
4727;DHT22;2377;51.734;8.950;2023-04-25T12:06:38;9.10;1.00
4727;DHT22;2377;51.734;8.950;2023-04-25T12:09:08;9.10;1.00
4727;DHT22;2377;51.734;8.950;2023-04-25T12:11:43;9.10;1.00
4727;DHT22;2377;51.734;8.950;2023-04-25T12:14:11;9.10;1.00
4727;DHT22;2377;51.734;8.950;2023-04-25T12:16:44;9.10;1.00
4727;DHT22;2377;51.734;8.950;2023-04-25T12:19:14;9.00;1.00
4727;DHT22;2377;51.734;8.950;2023-04-25T12:21:41;9.00;1.00
4727;DHT22;2377;51.734;8.950;2023-04-25T12:24:10;8.80;1.00
4727;DHT22;2377;51.734;8.950;2023-04-25T12:26:51;8.90;1.00
4727;DHT22;2377;51.734;8.950;2023-04-25T12:29:21;9.00;1.00
4727;DHT22;2377;51.734;8.950;2023-04-25T12:31:51;9.30;1.00
4727;DHT22;2377;51.734;8.950;2023-04-25T12:34:20;9.50;1.00
4727;DHT22;2377;51.734;8.950;2023-04-25T12:36:48;9.70;1.00
4727;DHT22;2377;51.734;8.950;2023-04-25T12:39:17;10.00;1.00
4727;DHT22;2377;51.734;8.950;2023-04-25T12:41:44;10.10;1.00
4727;DHT22;2377;51.734;8.950;2023-04-25T12:44:12;10.00;1.00
4727;DHT22;2377;51.734;8.950;2023-04-25T12:46:40;10.00;1.00
4727;DHT22;2377;51.734;8.950;2023-04-25T12:49:08;9.90;1.00
4727;DHT22;2377;51.734;8.950;2023-04-25T12:51:36;9.80;1.00
4727;DHT22;2377;51.734;8.950;2023-04-25T12:54:04;9.60;1.00
4727;DHT22;2377;51.734;8.950;2023-04-25T12:56:32;9.50;1.00
4727;DHT22;2377;51.734;8.950;2023-04-25T12:58:59;9.40;1.00
4727;DHT22;2377;51.734;8.950;2023-04-25T13:01:26;9.50;1.00
4727;DHT22;2377;51.734;8.950;2023-04-25T13:03:53;9.50;1.00
4727;DHT22;2377;51.734;8.950;2023-04-25T13:06:22;9.50;1.00
4727;DHT22;2377;51.734;8.950;2023-04-25T13:08:49;9.40;1.00
4727;DHT22;2377;51.734;8.950;2023-04-25T13:11:16;9.30;1.00
4727;DHT22;2377;51.734;8.950;2023-04-25T13:13:44;9.30;1.00
4727;DHT22;2377;51.734;8.950;2023-04-25T13:16:11;9.30;1.00
4727;DHT22;2377;51.734;8.950;2023-04-25T13:18:39;9.10;1.00
4727;DHT22;2377;51.734;8.950;2023-04-25T13:21:07;9.00;1.00
4727;DHT22;2377;51.734;8.950;2023-04-25T13:23:37;9.00;1.00
4727;DHT22;2377;51.734;8.950;2023-04-25T13:26:04;9.00;1.00
4727;DHT22;2377;51.734;8.950;2023-04-25T13:28:31;8.90;1.00
4727;DHT22;2377;51.734;8.950;2023-04-25T13:30:58;8.90;1.00
4727;DHT22;2377;51.734;8.950;2023-04-25T13:33:25;9.00;1.00
4727;DHT22;2377;51.734;8.950;2023-04-25T13:35:52;9.20;1.00
4727;DHT22;2377;51.734;8.950;2023-04-25T13:38:22;9.30;1.00
4727;DHT22;2377;51.734;8.950;2023-04-25T13:40:51;9.50;1.00
4727;DHT22;2377;51.734;8.950;2023-04-25T13:43:19;9.70;1.00
4727;DHT22;2377;51.734;8.950;2023-04-25T13:45:47;10.00;1.00
4727;DHT22;2377;51.734;8.950;2023-04-25T13:48:14;10.00;1.00
4727;DHT22;2377;51.734;8.950;2023-04-25T13:50:41;10.10;1.00
4727;DHT22;2377;51.734;8.950;2023-04-25T13:53:08;10.20;1.00
4727;DHT22;2377;51.734;8.950;2023-04-25T13:55:35;10.10;1.00
4727;DHT22;2377;51.734;8.950;2023-04-25T13:58:04;10.10;1.00
4727;DHT22;2377;51.734;8.950;2023-04-25T14:00:34;10.10;1.00
4727;DHT22;2377;51.734;8.950;2023-04-25T14:03:03;10.30;1.00
4727;DHT22;2377;51.734;8.950;2023-04-25T14:05:33;10.40;1.00
4727;DHT22;2377;51.734;8.950;2023-04-25T14:08:04;10.60;1.00
4727;DHT22;2377;51.734;8.950;2023-04-25T14:10:32;10.70;1.00
4727;DHT22;2377;51.734;8.950;2023-04-25T14:12:59;10.80;1.00
4727;DHT22;2377;51.734;8.950;2023-04-25T14:15:30;11.00;1.00
4727;DHT22;2377;51.734;8.950;2023-04-25T14:17:57;10.90;1.00
4727;DHT22;2377;51.734;8.950;2023-04-25T14:20:24;10.80;1.00
4727;DHT22;2377;51.734;8.950;2023-04-25T14:22:51;10.60;1.00
4727;DHT22;2377;51.734;8.950;2023-04-25T14:25:19;10.60;1.00
4727;DHT22;2377;51.734;8.950;2023-04-25T14:27:46;10.50;1.00
4727;DHT22;2377;51.734;8.950;2023-04-25T14:30:15;10.40;1.00
4727;DHT22;2377;51.734;8.950;2023-04-25T14:32:44;10.20;1.00
4727;DHT22;2377;51.734;8.950;2023-04-25T14:35:11;10.00;1.00
4727;DHT22;2377;51.734;8.950;2023-04-25T14:37:39;9.80;1.00
4727;DHT22;2377;51.734;8.950;2023-04-25T14:40:07;9.80;1.00
4727;DHT22;2377;51.734;8.950;2023-04-25T14:42:36;9.70;1.00
4727;DHT22;2377;51.734;8.950;2023-04-25T14:45:03;9.60;1.00
4727;DHT22;2377;51.734;8.950;2023-04-25T14:47:33;9.40;1.00
4727;DHT22;2377;51.734;8.950;2023-04-25T14:50:01;9.30;1.00
4727;DHT22;2377;51.734;8.950;2023-04-25T14:52:30;9.20;1.00
4727;DHT22;2377;51.734;8.950;2023-04-25T14:54:57;9.30;1.00
4727;DHT22;2377;51.734;8.950;2023-04-25T14:57:25;9.50;1.00
4727;DHT22;2377;51.734;8.950;2023-04-25T14:59:52;9.60;1.00
4727;DHT22;2377;51.734;8.950;2023-04-25T15:02:19;9.80;1.00
4727;DHT22;2377;51.734;8.950;2023-04-25T15:04:46;9.80;1.00
4727;DHT22;2377;51.734;8.950;2023-04-25T15:07:15;9.80;1.00
4727;DHT22;2377;51.734;8.950;2023-04-25T15:09:41;9.60;1.00
4727;DHT22;2377;51.734;8.950;2023-04-25T15:12:08;9.50;1.00
4727;DHT22;2377;51.734;8.950;2023-04-25T15:14:36;9.30;1.00
4727;DHT22;2377;51.734;8.950;2023-04-25T15:17:03;9.30;1.00
4727;DHT22;2377;51.734;8.950;2023-04-25T15:19:29;9.30;1.00
4727;DHT22;2377;51.734;8.950;2023-04-25T15:21:56;9.30;1.00
4727;DHT22;2377;51.734;8.950;2023-04-25T15:24:27;9.30;1.00
4727;DHT22;2377;51.734;8.950;2023-04-25T15:26:55;9.30;1.00
4727;DHT22;2377;51.734;8.950;2023-04-25T15:29:22;9.30;1.00
4727;DHT22;2377;51.734;8.950;2023-04-25T15:31:50;9.30;1.00
4727;DHT22;2377;51.734;8.950;2023-04-25T15:34:17;9.30;1.00
4727;DHT22;2377;51.734;8.950;2023-04-25T15:36:44;9.10;1.00
4727;DHT22;2377;51.734;8.950;2023-04-25T15:39:10;9.10;1.00
4727;DHT22;2377;51.734;8.950;2023-04-25T15:41:39;9.10;1.00
4727;DHT22;2377;51.734;8.950;2023-04-25T15:44:06;9.10;1.00
4727;DHT22;2377;51.734;8.950;2023-04-25T15:46:35;9.00;1.00
4727;DHT22;2377;51.734;8.950;2023-04-25T15:49:02;8.80;1.00
4727;DHT22;2377;51.734;8.950;2023-04-25T15:51:29;8.60;1.00
4727;DHT22;2377;51.734;8.950;2023-04-25T15:53:56;8.60;1.00
4727;DHT22;2377;51.734;8.950;2023-04-25T15:56:26;8.40;1.00
4727;DHT22;2377;51.734;8.950;2023-04-25T15:58:54;8.20;1.00
4727;DHT22;2377;51.734;8.950;2023-04-25T16:01:21;8.20;1.00
4727;DHT22;2377;51.734;8.950;2023-04-25T16:03:50;8.30;1.00
4727;DHT22;2377;51.734;8.950;2023-04-25T16:06:17;8.30;1.00
4727;DHT22;2377;51.734;8.950;2023-04-25T16:08:44;8.30;1.00
4727;DHT22;2377;51.734;8.950;2023-04-25T16:11:12;8.30;1.00
4727;DHT22;2377;51.734;8.950;2023-04-25T16:13:39;8.30;1.00
4727;DHT22;2377;51.734;8.950;2023-04-25T16:16:08;8.50;1.00
4727;DHT22;2377;51.734;8.950;2023-04-25T16:18:35;8.60;1.00
4727;DHT22;2377;51.734;8.950;2023-04-25T16:21:02;8.70;1.00
4727;DHT22;2377;51.734;8.950;2023-04-25T16:23:29;8.90;1.00
4727;DHT22;2377;51.734;8.950;2023-04-25T16:25:56;8.90;1.00
4727;DHT22;2377;51.734;8.950;2023-04-25T16:28:24;8.90;1.00
4727;DHT22;2377;51.734;8.950;2023-04-25T16:30:51;9.00;1.00